Sonic Adventure (DX): Overall Rankings

Records: Times | Rings | Scores | Races | Bosses | Freestyle
Leaders: Times | Rings | Scores | Races | Bosses | Freestyle | Overall
Rank Player Percent Points Date
1 Sonicspeedruner 97.8% 384 04-18-19
2 Gamepro011 97.8% 385 04-18-19
3 DarkPolarNight 96.5% 604 04-18-19
4 Jawzun 93.0% 1235 04-18-19
5 Dashjump 91.5% 1494 04-18-19
6 DarkspinesSonic 89.4% 1857 04-18-19
7 Avento128bits 89.4% 1868 04-18-19
8 ike6252 89.1% 1910 04-18-19
9 F-Man 87.3% 2227 04-18-19
10 Coolfansonic 86.9% 2313 04-18-19
11 TheRealShadnic 84.9% 2665 04-18-19
12 HyperSonic7701 84.0% 2818 04-18-19
13 yoshifan 82.2% 3126 04-18-19
14 frankoredstrato 81.9% 3186 04-18-19
15 francisco 81.0% 3350 04-18-19
16 Marth 80.8% 3378 04-18-19
17 InferSaime 79.5% 3619 04-18-19
18 PfoSonic 79.0% 3697 04-18-19
19 Paragod 78.6% 3773 04-18-19
20 THC98 77.8% 3906 04-18-19
21 Stefan 75.3% 4344 04-18-19
22 RPGnutter 73.2% 4728 04-18-19
23 bertin 73.1% 4741 04-18-19
24 sonicam 71.0% 5105 04-18-19
25 Dekuboy 71.0% 5111 04-18-19
26 drminus 69.7% 5338 04-18-19
27 chaos shadow 69.0% 5467 04-18-19
28 chainchump 65.7% 6048 04-18-19
29 Combo 65.1% 6152 04-18-19
30 SkyLights 63.9% 6369 04-18-19
31 xXMegaManXx 62.3% 6655 04-18-19
32 Diamond 61.9% 6720 04-18-19
33 Auriman1 59.7% 7105 04-18-19
34 OmegaDJ 59.7% 7107 04-18-19
35 GerbilSoft 59.6% 7118 04-18-19
36 magnum12 58.9% 7249 04-18-19
37 Thorn 56.7% 7637 04-18-19
38 P1 Pause 56.5% 7678 04-18-19
39 mike89 55.4% 7872 04-18-19
40 Dave Cramer 53.5% 8210 04-18-19
41 Groudon199 53.4% 8214 04-18-19
42 Parax 53.0% 8295 04-18-19
43 Shadow Jacky 52.3% 8414 04-18-19
44 Zurggriff 47.7% 9221 04-18-19
45 Psymar 47.3% 9304 04-18-19
46 Arch 46.4% 9450 04-18-19
47 Chao_Fan 45.5% 9613 04-18-19
48 mauserman 44.9% 9721 04-18-19
49 Quartz 44.4% 9813 04-18-19
50 teamblackarms 43.7% 9930 04-18-19
51 Psyknux 42.9% 10074 04-18-19
52 James_Bertolli 42.6% 10133 04-18-19
53 Cyan Ryan 42.4% 10157 04-18-19
54 NintenDan 42.2% 10202 04-18-19
55 Webber3000 41.5% 10318 04-18-19
56 Turbos 41.5% 10322 04-18-19
57 Ring Rush 41.3% 10349 04-18-19
58 Fr3nZy 41.2% 10380 04-18-19
59 Cream147 41.0% 10408 04-18-19
60 videogamemaster777 40.9% 10423 04-18-19
61 Siavash Tazari 40.8% 10446 04-18-19
62 buddychaos0415 40.3% 10533 04-18-19
63 SadisticMystic 39.8% 10614 04-18-19
64 ethmar 39.6% 10649 04-18-19
65 eggFL 38.9% 10783 04-18-19
66 Calfd 38.3% 10879 04-18-19
67 SB737 37.3% 11065 04-18-19
68 supersonic465 36.8% 11159 04-18-19
69 supersonicfan 36.2% 11263 04-18-19
70 FuzZerd 35.1% 11451 04-18-19
71 Aitamen 34.6% 11543 04-18-19
72 BigAL49 34.1% 11620 04-18-19
73 elecmouse101 34.1% 11622 04-18-19
74 danieldude 34.0% 11639 04-18-19
75 Austinf 33.6% 11714 04-18-19
76 metanightmare22 32.9% 11839 04-18-19
77 dabestgamer 32.5% 11916 04-18-19
78 MiStEr_ShAoLiN 32.3% 11940 04-18-19
79 Niczur 32.3% 11952 04-18-19
80 Andrea Ritsu 31.6% 12065 04-18-19
81 itsPersonnal 31.5% 12089 04-18-19
82 WeegeeZV 31.3% 12123 04-18-19
83 Cybrax 30.7% 12221 04-18-19
84 Nim 30.5% 12258 04-18-19
85 JamminX42 30.4% 12280 04-18-19
86 SilvertheAlmighty 30.4% 12289 04-18-19
87 Mastakirby 30.1% 12332 04-18-19
88 VMU Player Banned 28.7% 12581 04-18-19
89 Omega Rafael Santos 28.2% 12663 04-18-19
90 Staf 28.0% 12711 04-18-19
91 The T 27.6% 12767 04-18-19
92 EngiNerd 27.4% 12813 04-18-19
93 lordmetalsonic 26.9% 12903 04-18-19
94 Hipertails12 26.7% 12928 04-18-19
95 welldooder64 26.3% 12998 04-18-19
96 GreatStar 26.2% 13026 04-18-19
97 The Great Lord Mick 26.0% 13065 04-18-19
98 Sondow 25.8% 13086 04-18-19
99 LinksDarkArrows 25.6% 13127 04-18-19
100 Skylace 24.8% 13267 04-18-19
101 a_moustache 24.0% 13416 04-18-19
102 Rolken 23.2% 13552 04-18-19
103 Xia 21.6% 13838 04-18-19
104 Spinballwizard 21.5% 13846 04-18-19
105 Kogen Player Banned 21.5% 13856 04-18-19
106 Don 21.2% 13897 04-18-19
107 CoEmpathy 21.2% 13906 04-18-19
108 Game_Complete 21.1% 13926 04-18-19
109 f0rever_zer0 21.1% 13928 04-18-19
110 Twilisailor 21.1% 13931 04-18-19
111 Miles9999 21.0% 13942 04-18-19
112 Cutiefox 20.9% 13959 04-18-19
113 andres430 20.2% 14081 04-18-19
114 Cruizer 20.0% 14110 04-18-19
115 iSonicKid2K 19.9% 14140 04-18-19
116 SADXTryHard 19.8% 14150 04-18-19
117 N 19.2% 14253 04-18-19
118 GarnetPrincess 19.2% 14257 04-18-19
119 AxlThunder 18.9% 14316 04-18-19
120 knuckles_sonic8 18.4% 14391 04-18-19
121 KinkyCadence 18.0% 14463 04-18-19
122 The Knuckles Chao 17.9% 14487 04-18-19
123 Team_Yoshi 17.8% 14514 04-18-19
124 Termon 17.7% 14522 04-18-19
125 LittleBigness 17.6% 14548 04-18-19
126 SonicWinDX 17.5% 14558 04-18-19
127 FoxBoy 17.3% 14594 04-18-19
128 Drakodan 16.8% 14690 04-18-19
129 Sonic Singularity 15.6% 14897 04-18-19
130 Pokemonmaster888 15.3% 14942 04-18-19
131 paulie9990 14.9% 15015 04-18-19
132 SilverSonic 14.3% 15115 04-18-19
133 MPit08 14.1% 15165 04-18-19
134 Mo Player Banned 13.9% 15194 04-18-19
135 koinu93 13.7% 15229 04-18-19
136 Cod4Scopes 13.4% 15275 04-18-19
137 Jerzia 13.3% 15305 04-18-19
138 HyperSonic64 13.2% 15318 04-18-19
139 Hunters13 13.1% 15334 04-18-19
140 booo95 13.0% 15346 04-18-19
141 Chawkk 13.0% 15354 04-18-19
142 SuperSonic101 12.8% 15385 04-18-19
143 Maxinfamily 12.7% 15404 04-18-19
144 R3FR4G 12.7% 15412 04-18-19
145 Kanimayo_Jp 12.4% 15454 04-18-19
146 PsyBorg 12.4% 15466 04-18-19
147 Flying Fox 12.3% 15479 04-18-19
148 BrokenArthritis 12.3% 15480 04-18-19
149 LilZero 12.3% 15482 04-18-19
150 Therio 11.9% 15548 04-18-19
151 sonicspeed 11.5% 15615 04-18-19
152 douglas 11.4% 15641 04-18-19
153 thewaytodawnnn 11.2% 15664 04-18-19
154 ModifiedMonkee 11.1% 15691 04-18-19
155 Matt_TY 11.1% 15693 04-18-19
156 SuperBlitzCraig 10.6% 15778 04-18-19
157 joecoolgames 10.6% 15783 04-18-19
158 Cooljay 10.5% 15792 04-18-19
159 SeaWolf 10.4% 15811 04-18-19
160 videogamer1014 10.2% 15849 04-18-19
161 AC-Tygo 9.9% 15899 04-18-19
162 welshmoose05 9.9% 15905 04-18-19
163 TFEC Headshot 9.7% 15941 04-18-19
164 crazy1993 9.6% 15946 04-18-19
164 OddCook 9.6% 15946 04-18-19
166 Mcshuggets 9.5% 15962 04-18-19
167 Mariobutch 9.4% 15984 04-18-19
168 Irregular Zero 9.2% 16031 04-18-19
169 niscool 9.1% 16043 04-18-19
170 nuckrieg 9.1% 16044 04-18-19
171 SonicAD 8.9% 16071 04-18-19
172 Shadowthegreat 8.7% 16109 04-18-19
173 SirTobbii 8.7% 16110 04-18-19
174 superjupi 8.7% 16111 04-18-19
175 Powerjohn25 8.5% 16150 04-18-19
176 SaviourDC 8.5% 16155 04-18-19
177 iarebored 8.4% 16159 04-18-19
178 sonamyfan666 8.4% 16162 04-18-19
179 SonicKnuckles 8.3% 16181 04-18-19
180 Werey 8.2% 16209 04-18-19
181 adf 7.9% 16245 04-18-19
182 Megaman EXE565 7.7% 16296 04-18-19
183 ArcticDragon 7.4% 16339 04-18-19
184 Platformer 7.4% 16342 04-18-19
185 FocusSight64 7.2% 16373 04-18-19
186 Swift Hobo 7.2% 16374 04-18-19
187 timpkmn89 7.2% 16376 04-18-19
188 Vicklaw 7.1% 16396 04-18-19
189 wheatrich 7.0% 16408 04-18-19
190 Rickyman48 7.0% 16412 04-18-19
191 Sm4sh 6.7% 16457 04-18-19
192 KitsuneYamaro 6.7% 16460 04-18-19
193 Triseena 6.5% 16496 04-18-19
194 Starlight Sable 6.4% 16517 04-18-19
195 CyberShadow 6.4% 16524 04-18-19
196 Destroyer121121 6.3% 16531 04-18-19
197 slade23 6.3% 16538 04-18-19
198 dShadow 6.3% 16544 04-18-19
199 IsisDazs 6.2% 16550 04-18-19
200 BlankTH 5.9% 16603 04-18-19
201 Badlex727 5.9% 16610 04-18-19
202 Monkeh 5.8% 16625 04-18-19
203 Swinkly 5.6% 16660 04-18-19
204 SonicU260 5.6% 16661 04-18-19
205 Richied 5.6% 16665 04-18-19
206 DaDude 5.6% 16667 04-18-19
207 Crispian 5.5% 16669 04-18-19
208 sonicd5 5.5% 16676 04-18-19
209 Zip 5.4% 16699 04-18-19
210 VeritasDL 5.3% 16720 04-18-19
211 iden1 5.2% 16724 04-18-19
212 tal39h 5.0% 16758 04-18-19
213 Kirbymon30 5.0% 16763 04-18-19
214 ALundstrom10 5.0% 16767 04-18-19
215 soniccoloursunleashed 4.8% 16799 04-18-19
216 Drflash55 4.7% 16811 04-18-19
217 Bass 4.6% 16830 04-18-19
218 neaolas 4.6% 16836 04-18-19
219 Yish 4.6% 16837 04-18-19
220 zapp 4.5% 16848 04-18-19
221 UninspiredUsername 4.5% 16850 04-18-19
222 Sonicsuperstar1 4.5% 16859 04-18-19
223 superiorsonic 4.4% 16863 04-18-19
224 gamefreak1292 4.4% 16871 04-18-19
225 Sora_yx 4.2% 16899 04-18-19
226 Chaos_Overlord 4.0% 16934 04-18-19
227 TakaRikka 4.0% 16948 04-18-19
228 Valfore 3.9% 16953 04-18-19
229 Dage4Aquatic 3.8% 16972 04-18-19
230 ShinigamiMachine 3.8% 16986 04-18-19
231 Regano1000 3.7% 17000 04-18-19
232 MK 3.6% 17019 04-18-19
233 Ace747 3.5% 17035 04-18-19
234 Jua Rever 3.3% 17059 04-18-19
235 HHNNBBHHN 3.1% 17098 04-18-19
236 Illidan 3.1% 17099 04-18-19
237 Brian_pso 3.1% 17102 04-18-19
238 Venick409 3.1% 17104 04-18-19
239 nman36 3.0% 17110 04-18-19
240 Sithwarrior26 3.0% 17111 04-18-19
241 ingx24 2.9% 17136 04-18-19
242 Egor305 2.9% 17139 04-18-19
243 TheChaosEmeraIds 2.9% 17142 04-18-19
244 Nickson98 2.8% 17153 04-18-19
245 SkyBon 2.8% 17156 04-18-19
246 FSSRandomvids 2.8% 17162 04-18-19
247 dekki1234 2.7% 17164 04-18-19
248 Fozer 2.7% 17170 04-18-19
249 sonic29887 2.7% 17179 04-18-19
250 Aiko 2.6% 17184 04-18-19
250 Colomb_30 2.6% 17184 04-18-19
252 TheUltraBlur 2.6% 17191 04-18-19
253 1stKirbyever 2.6% 17196 04-18-19
254 TimTH 2.5% 17211 04-18-19
255 Th4tN1nj4Turtl3 2.3% 17238 04-18-19
256 Cort_pso 2.3% 17244 04-18-19
257 Doom-9 2.2% 17251 04-18-19
258 ieatatsonic 2.2% 17256 04-18-19
259 Mariosonic15 2.2% 17260 04-18-19
260 MStitomix 2.1% 17273 04-18-19
261 HermitHelmet 2.1% 17280 04-18-19
262 SuperSonic71087 2.0% 17297 04-18-19
263 Got4n 2.0% 17299 04-18-19
264 Questionguy555 2.0% 17301 04-18-19
265 Artie 2.0% 17303 04-18-19
266 Jose_15 1.9% 17309 04-18-19
267 djmat 1.9% 17320 04-18-19
268 SuperSonicfan9595 1.8% 17327 04-18-19
269 sonicandamy Player Banned 1.7% 17341 04-18-19
270 LancexExWx 1.7% 17353 04-18-19
271 Paixii 1.7% 17356 04-18-19
272 son1cgu1tar 1.6% 17359 04-18-19
273 Heroes_Hater 1.6% 17367 04-18-19
274 BallzeH 1.5% 17376 04-18-19
275 Mankster101 1.5% 17382 04-18-19
276 Jamixesa 1.5% 17385 04-18-19
277 BecauseWarAnvil 1.5% 17387 04-18-19
278 Shanekilz 1.4% 17394 04-18-19
279 Crydio 1.4% 17395 04-18-19
280 SpiritDragon1995 1.4% 17398 04-18-19
281 MarewBFN 1.3% 17415 04-18-19
281 stanski 1.3% 17415 04-18-19
283 Sonique Hedgehog 1.3% 17420 04-18-19
284 Blue Infamy 1.2% 17431 04-18-19
285 ArthurVGCP 1.2% 17435 04-18-19
285 p0ker 1.2% 17435 04-18-19
287 ErrortheCucco 1.2% 17442 04-18-19
288 Rikum22 1.2% 17445 04-18-19
289 Arthas 1.1% 17450 04-18-19
290 sonic1001 1.1% 17453 04-18-19
291 syco1098 1.1% 17460 04-18-19
292 AJSIV 1.1% 17462 04-18-19
293 Sonic the Hedgehod16 1.0% 17465 04-18-19
293 WingedInsignia 1.0% 17465 04-18-19
295 ASINISTERTACO 1.0% 17472 04-18-19
296 sonicfan9 1.0% 17477 04-18-19
297 BlackArmsShadow 0.9% 17486 04-18-19
298 themachoman202 0.9% 17488 04-18-19
299 shadowblast63 Player Banned 0.9% 17493 04-18-19
300 Fivavoa 0.9% 17497 04-18-19
300 MastaToken 0.9% 17497 04-18-19
302 Ben1502 0.8% 17499 04-18-19
302 darkstarblaze 0.8% 17499 04-18-19
302 Greham Adelphis 0.8% 17499 04-18-19
302 Mr. Jones 0.8% 17499 04-18-19
306 TommyeAsY 0.8% 17501 04-18-19
307 arcfx1985 0.8% 17502 04-18-19
308 ptorflaxendrosis 0.8% 17505 04-18-19
309 FlandreScarlet9999vr 0.8% 17509 04-18-19
310 Gvozdevik 0.8% 17510 04-18-19
311 Zeldocto 0.8% 17512 04-18-19
312 Knuckles 0.8% 17513 04-18-19
313 BeeAwwb 0.7% 17517 04-18-19
314 KaM Mark MaK 0.7% 17519 04-18-19
315 ShadouZaHejjihoggu 0.7% 17523 04-18-19
316 Sogeking 0.7% 17529 04-18-19
317 Sonic The Star 0.7% 17531 04-18-19
318 darkersupershadic 0.7% 17532 04-18-19
319 Sonic62 0.6% 17535 04-18-19
320 Sarger001 0.6% 17537 04-18-19
321 dragondragon18 0.6% 17540 04-18-19
322 Grady219 0.6% 17541 04-18-19
322 SonicK100 0.6% 17541 04-18-19
324 Shadygamerfreak 0.6% 17542 04-18-19
325 Jawaah 0.6% 17545 04-18-19
326 Antek 0.6% 17549 04-18-19
327 Klaus 0.6% 17551 04-18-19
327 SpinDashMaster 0.6% 17551 04-18-19
329 SilverK 0.5% 17553 04-18-19
330 BioShadow 0.5% 17557 04-18-19
331 Videogamer123 0.5% 17564 04-18-19
332 oTaiIilLsS 0.4% 17575 04-18-19
333 isaihtb11 0.4% 17578 04-18-19
334 OhNoes! 0.4% 17579 04-18-19
335 Mad Andy 0.4% 17580 04-18-19
335 zaktu40 0.4% 17580 04-18-19
337 gaara1234 0.4% 17583 04-18-19
337 S-MS32X-S 0.4% 17583 04-18-19
339 gamed00d 0.3% 17589 04-18-19
340 Mister_Slick 0.3% 17595 04-18-19
341 Sonic06Fan 0.3% 17599 04-18-19
342 Rush Hero 0.3% 17600 04-18-19
343 ChaosNexuss 0.3% 17601 04-18-19
344 SonicMega167 0.2% 17606 04-18-19
345 Iwannabelink 0.2% 17607 04-18-19
346 sonknuck23 0.2% 17610 04-18-19
347 DanielTheFalcon 0.2% 17618 04-18-19
347 gamer1245 0.2% 17618 04-18-19
349 Burningskull123 0.1% 17625 04-18-19
350 Sonicontherun 0.1% 17636 04-18-19
351 Lil_Dude 0.1% 17638 04-18-19
352 antiwwe 0.0% 17642 04-18-19
353 Cbwade15 0.0% 17646 04-18-19
353 Genuine Hedgehog 0.0% 17646 04-18-19
355 Tyrouble 0.0% 17650 04-18-19
356 MegabombBlade 0.0% 17657 04-18-19
356 neji_hyuuga 0.0% 17657 04-18-19
356 Over 0.0% 17657 04-18-19
356 sdj6707 Player Banned 0.0% 17657 04-18-19
356 Tran Sonic Fan Player Banned 0.0% 17657 04-18-19

This page is using the New Data Table System. [FUTURE]

Game ID: 3 | Category ID: 10
Hits: 74,711 | Hits This Month: 198 | DB Calls: 21 | Mem Usage: 5.89 MB | Time: 0.25s | Printable

The Sonic Center v3.9
Copyright 2003-2011 by The Sonic Center Team.